Time;durP1;ratioP1;P1;durP2;ratioP2;P2;SDS_P1;SDS_P2;PMS_P1;PMS_P2;Temp;Humidity;BMP_temperature;BMP_pressure;BME280_temperature;BME280_humidity;BME280_pressure;Samples;Min_cycle;Max_cycle;Signal;HPM_P1;HPM_P2
2023/01/20 00:04:09;;;;;;;1999.90;999.90;;;;;;;0.99;100.00;101000.47;10497437;28;20052;-64
2023/01/20 00:09:15;;;;;;;1999.90;999.90;;;;;;;0.55;100.00;100988.19;10497591;28;20053;-65
2023/01/20 00:14:17;;;;;;;1999.90;999.90;;;;;;;0.49;100.00;101008.03;10480647;28;20048;-64
2023/01/20 00:19:20;;;;;;;1999.90;999.90;;;;;;;0.74;100.00;101006.84;10496452;28;20052;-64
2023/01/20 00:24:22;;;;;;;1999.90;999.90;;;;;;;0.55;100.00;101000.22;10498052;28;20048;-64
2023/01/20 00:29:24;;;;;;;1999.90;999.90;;;;;;;0.55;100.00;101000.22;10496917;28;20048;-64
2023/01/20 00:34:27;;;;;;;1999.90;999.90;;;;;;;0.87;100.00;100993.78;10497863;28;20048;-64
2023/01/20 00:39:29;;;;;;;1999.90;999.90;;;;;;;0.47;100.00;101002.91;10497568;28;20476;-64
2023/01/20 00:44:31;;;;;;;1999.90;999.90;;;;;;;0.37;100.00;101009.03;10478297;28;20130;-64
2023/01/20 00:49:34;;;;;;;1999.90;999.90;;;;;;;0.45;100.00;101003.78;10463111;28;20068;-65
2023/01/20 00:54:36;;;;;;;1999.90;999.90;;;;;;;0.46;100.00;101008.06;10497439;28;20059;-65
2023/01/20 00:59:39;;;;;;;1999.90;999.90;;;;;;;0.49;100.00;101020.91;10496208;28;20055;-64
2023/01/20 01:04:41;;;;;;;1999.90;999.90;;;;;;;0.15;100.00;101023.84;10478878;28;20450;-64
2023/01/20 01:09:44;;;;;;;1999.90;999.90;;;;;;;0.14;100.00;101030.72;10496520;28;20442;-64
2023/01/20 01:14:46;;;;;;;1999.90;999.90;;;;;;;0.13;100.00;101043.63;10496032;28;20053;-64
2023/01/20 01:19:52;;;;;;;1999.90;999.90;;;;;;;0.21;100.00;101054.69;10496926;28;20040;-64
2023/01/20 01:24:55;;;;;;;1999.90;999.90;;;;;;;0.14;100.00;101047.91;10452795;28;20057;-64
2023/01/20 01:29:57;;;;;;;1999.90;999.90;;;;;;;0.13;100.00;101047.03;10462062;28;20049;-64
2023/01/20 01:34:59;;;;;;;1999.90;999.90;;;;;;;0.19;100.00;101061.59;10462208;28;20053;-64
2023/01/20 01:40:02;;;;;;;1999.90;999.90;;;;;;;0.11;100.00;101063.38;10497634;28;20044;-64
2023/01/20 01:45:10;;;;;;;1999.90;999.90;;;;;;;0.15;100.00;101083.94;10501405;28;20208;-64
2023/01/20 01:50:20;;;;;;;1999.90;999.90;;;;;;;0.13;100.00;101072.78;10510999;22;20104;-67
2023/01/20 01:55:27;;;;;;;1999.90;999.90;;;;;;;-0.03;100.00;101087.53;10468863;28;20449;-67
2023/01/20 02:00:29;;;;;;;1999.90;999.90;;;;;;;0.29;100.00;101091.53;10501505;28;20549;-67
2023/01/20 02:05:31;;;;;;;1999.90;999.90;;;;;;;0.39;100.00;101081.13;10502742;28;20053;-68
2023/01/20 02:10:34;;;;;;;1999.90;999.90;;;;;;;0.10;100.00;101090.00;10501840;28;20041;-68
2023/01/20 02:15:49;;;;;;;1999.90;999.90;;;;;;;0.22;100.00;101084.75;10501773;28;20469;-67
2023/01/20 02:20:59;;;;;;;1999.90;999.90;;;;;;;0.05;100.00;101078.88;10500782;28;20040;-68
2023/01/20 02:26:28;;;;;;;1999.90;999.90;;;;;;;0.11;100.00;101089.13;10481692;28;20044;-67
2023/01/20 02:31:45;;;;;;;1999.90;999.90;;;;;;;0.06;100.00;101090.91;10500137;28;20057;-68
2023/01/20 02:36:55;;;;;;;1999.90;999.90;;;;;;;0.16;100.00;101097.66;10501264;28;20131;-67
2023/01/20 02:42:12;;;;;;;1999.90;999.90;;;;;;;0.33;100.00;101100.91;10482519;28;20054;-67
2023/01/20 02:47:18;;;;;;;1999.90;999.90;;;;;;;0.24;100.00;101101.03;10483194;28;20483;-68
2023/01/20 02:52:40;;;;;;;1999.90;999.90;;;;;;;0.28;100.00;101102.69;10500534;28;20060;-67
2023/01/20 02:57:46;;;;;;;1999.90;999.90;;;;;;;0.60;100.00;101111.81;10463717;28;20483;-68
2023/01/20 03:02:51;;;;;;;1999.90;999.90;;;;;;;0.45;100.00;101110.25;10464913;28;20483;-67
2023/01/20 03:07:55;;;;;;;1999.90;999.90;;;;;;;0.51;100.00;101114.50;10482786;28;20086;-68
2023/01/20 03:13:07;;;;;;;1999.90;999.90;;;;;;;0.39;100.00;101112.03;10499969;28;20052;-68
2023/01/20 03:18:09;;;;;;;1999.90;999.90;;;;;;;0.59;100.00;101119.53;10441805;28;20045;-67
2023/01/20 03:23:12;;;;;;;1999.90;999.90;;;;;;;0.41;100.00;101112.88;10451433;28;20048;-67
2023/01/20 03:28:14;;;;;;;1999.90;999.90;;;;;;;0.52;100.00;101111.91;10458555;28;20048;-68
2023/01/20 03:33:17;;;;;;;1999.90;999.90;;;;;;;0.43;100.00;101111.97;10499288;28;20063;-68
2023/01/20 03:38:19;;;;;;;1999.90;999.90;;;;;;;0.39;100.00;101114.59;10481294;28;20049;-68
2023/01/20 03:44:04;;;;;;;1999.90;999.90;;;;;;;0.45;100.00;101112.81;10478781;28;20449;-68
2023/01/20 03:49:20;;;;;;;1999.90;999.90;;;;;;;0.46;100.00;101111.97;10412836;28;20500;-67
2023/01/20 03:54:25;;;;;;;1999.90;999.90;;;;;;;0.49;100.00;101118.81;10439817;28;20143;-68
2023/01/20 03:59:27;;;;;;;1999.90;999.90;;;;;;;0.44;100.00;101126.59;10467850;28;20052;-68
2023/01/20 04:04:32;;;;;;;1999.90;999.90;;;;;;;0.31;100.00;101120.69;10497676;28;20098;-68
2023/01/20 04:09:38;;;;;;;1999.90;999.90;;;;;;;0.55;100.00;101121.31;10496819;28;20407;-67
2023/01/20 04:14:40;;;;;;;1999.90;999.90;;;;;;;0.38;100.00;101128.38;10480545;28;20049;-67
2023/01/20 04:19:42;;;;;;;1999.90;999.90;;;;;;;0.71;100.00;101143.47;10497407;28;20475;-68
2023/01/20 04:24:56;;;;;;;1999.90;999.90;;;;;;;0.50;100.00;101144.53;10497406;28;20040;-67
2023/01/20 04:29:58;;;;;;;1999.90;999.90;;;;;;;0.68;100.00;101152.97;10497951;28;20048;-68
2023/01/20 04:35:00;;;;;;;1999.90;999.90;;;;;;;0.40;100.00;101150.66;10496481;28;20556;-68
2023/01/20 04:40:03;;;;;;;1999.90;999.90;;;;;;;0.46;100.00;101154.91;10478382;28;20491;-67
2023/01/20 04:45:06;;;;;;;1999.90;999.90;;;;;;;0.32;100.00;101155.03;10479959;28;20059;-68
2023/01/20 04:50:09;;;;;;;1999.90;999.90;;;;;;;0.39;100.00;101151.53;10497189;28;20099;-68
2023/01/20 04:55:12;;;;;;;1999.90;999.90;;;;;;;0.32;100.00;101160.16;10478980;28;20495;-67
2023/01/20 05:00:18;;;;;;;1999.90;999.90;;;;;;;0.30;100.00;101154.19;10503732;28;20051;-67
2023/01/20 05:05:21;;;;;;;1999.90;999.90;;;;;;;0.20;100.00;101161.13;10502499;28;20048;-67
2023/01/20 05:10:23;;;;;;;1999.90;999.90;;;;;;;0.18;100.00;101153.44;10504279;28;20063;-68
2023/01/20 05:15:26;;;;;;;1999.90;999.90;;;;;;;0.46;100.00;101162.63;10486286;28;20052;-68
2023/01/20 05:20:28;;;;;;;1999.90;999.90;;;;;;;0.36;100.00;101159.28;10485232;28;20127;-68
2023/01/20 05:25:30;;;;;;;1999.90;999.90;;;;;;;0.29;100.00;101162.81;10504423;28;20098;-67
2023/01/20 05:30:33;;;;;;;1999.90;999.90;;;;;;;0.60;100.00;101167.66;10503420;28;20502;-68
2023/01/20 05:35:37;;;;;;;1999.90;999.90;;;;;;;0.03;100.00;101160.44;10502561;28;20102;-68
2023/01/20 05:40:39;;;;;;;1999.90;999.90;;;;;;;0.06;100.00;101168.97;10485032;28;20056;-67
2023/01/20 05:45:42;;;;;;;1999.90;999.90;;;;;;;0.05;100.00;101177.59;10502956;28;20052;-68
2023/01/20 05:50:44;;;;;;;1999.90;999.90;;;;;;;0.19;100.00;101182.63;10502467;28;20166;-67
2023/01/20 05:55:47;;;;;;;1999.90;999.90;;;;;;;0.18;100.00;101175.75;10502330;28;20055;-67
2023/01/20 06:00:49;;;;;;;1999.90;999.90;;;;;;;0.13;100.00;101174.94;10502241;28;20510;-67
2023/01/20 06:05:51;;;;;;;1999.90;999.90;;;;;;;-0.09;100.00;101176.81;10497715;28;20506;-67
2023/01/20 06:10:54;;;;;;;1999.90;999.90;;;;;;;0.09;100.00;101179.25;10501892;28;20098;-67
2023/01/20 06:15:56;;;;;;;1999.90;999.90;;;;;;;0.02;100.00;101180.19;10483518;28;20510;-67
2023/01/20 06:20:59;;;;;;;1999.90;999.90;;;;;;;0.01;100.00;101186.19;10484742;28;20045;-67
2023/01/20 06:26:03;;;;;;;1999.90;999.90;;;;;;;-0.02;100.00;101181.06;10502066;28;20056;-67
2023/01/20 06:31:10;;;;;;;1999.90;999.90;;;;;;;0.01;100.00;101183.63;10501245;28;20044;-67
2023/01/20 06:36:15;;;;;;;1999.90;999.90;;;;;;;0.03;100.00;101193.91;10483339;28;20487;-67
2023/01/20 06:41:19;;;;;;;1999.90;999.90;;;;;;;0.10;100.00;101190.41;10501354;28;20041;-67
2023/01/20 06:46:21;;;;;;;1999.90;999.90;;;;;;;0.12;100.00;101205.00;10482796;28;20052;-67
2023/01/20 06:51:24;;;;;;;1999.90;999.90;;;;;;;0.26;100.00;101210.03;10500652;28;20110;-67
2023/01/20 06:56:27;;;;;;;1999.90;999.90;;;;;;;0.07;100.00;101208.44;10500762;28;20052;-67
2023/01/20 07:01:30;;;;;;;1999.90;999.90;;;;;;;0.21;100.00;101231.53;10499882;28;20412;-67
2023/01/20 07:06:38;;;;;;;1999.90;999.90;;;;;;;0.03;100.00;101237.66;10500375;28;20060;-67
2023/01/20 07:11:40;;;;;;;1999.90;999.90;;;;;;;-0.05;100.00;101232.56;10499573;28;20442;-68
2023/01/20 07:16:42;;;;;;;1999.90;999.90;;;;;;;-0.12;100.00;101238.63;10482240;28;20056;-67
2023/01/20 07:21:45;;;;;;;1999.90;999.90;;;;;;;0.22;100.00;101236.69;10499157;28;20074;-67
2023/01/20 07:26:47;;;;;;;1999.90;999.90;;;;;;;0.08;100.00;101241.06;10499010;28;20052;-67
2023/01/20 07:31:49;;;;;;;1999.90;999.90;;;;;;;0.08;100.00;101252.22;10499420;28;20040;-68
2023/01/20 07:36:52;;;;;;;1999.90;999.90;;;;;;;0.03;100.00;101240.25;10481006;28;20422;-67
2023/01/20 07:41:54;;;;;;;1999.90;999.90;;;;;;;0.06;100.00;101241.06;10499113;28;20044;-67
2023/01/20 07:46:57;;;;;;;1999.90;999.90;;;;;;;0.34;100.00;101261.50;10499007;28;20056;-67
2023/01/20 07:51:59;;;;;;;1999.90;999.90;;;;;;;0.17;100.00;101270.19;10498452;28;20076;-67
2023/01/20 07:57:02;;;;;;;1999.90;999.90;;;;;;;0.20;100.00;101269.28;10481000;28;20044;-67
2023/01/20 08:02:04;;;;;;;1999.90;999.90;;;;;;;0.27;100.00;101270.97;10498846;28;20062;-67
2023/01/20 08:07:07;;;;;;;1999.90;999.90;;;;;;;0.25;100.00;101262.38;10497797;28;20114;-67
2023/01/20 08:12:09;;;;;;;1999.90;999.90;;;;;;;0.20;100.00;101260.72;10498373;28;20044;-67
2023/01/20 08:17:12;;;;;;;1999.90;999.90;;;;;;;0.30;100.00;101260.66;10497521;28;20400;-67
2023/01/20 08:22:14;;;;;;;1999.90;999.90;;;;;;;0.14;100.00;101277.09;10497558;28;20044;-67
2023/01/20 08:27:17;;;;;;;1999.90;999.90;;;;;;;0.23;100.00;101284.72;10498058;28;20196;-68
2023/01/20 08:32:19;;;;;;;1999.90;999.90;;;;;;;0.13;100.00;101281.34;10502339;28;20102;-67
2023/01/20 08:37:22;;;;;;;1999.90;999.90;;;;;;;0.16;100.00;101280.50;10506759;28;20048;-68
2023/01/20 08:42:24;;;;;;;1999.90;999.90;;;;;;;0.35;100.00;101278.63;10506154;28;20059;-67
2023/01/20 08:47:27;;;;;;;1999.90;999.90;;;;;;;0.44;100.00;101288.88;10505850;28;20064;-67
2023/01/20 08:52:29;;;;;;;1999.90;999.90;;;;;;;0.57;100.00;101293.94;10505587;28;20060;-67
2023/01/20 08:57:31;;;;;;;1999.90;999.90;;;;;;;0.78;100.00;101291.19;10505465;28;20048;-67
2023/01/20 09:02:34;;;;;;;1999.90;999.90;;;;;;;0.72;100.00;101288.66;10504636;28;20054;-67
2023/01/20 09:07:37;;;;;;;1999.90;999.90;;;;;;;0.51;100.00;101287.13;10486807;28;20095;-67
2023/01/20 09:12:39;;;;;;;1999.90;999.90;;;;;;;0.52;100.00;101302.56;10486584;28;20484;-67
2023/01/20 09:17:41;;;;;;;1999.90;999.90;;;;;;;0.72;100.00;101297.25;10486343;28;20102;-67
2023/01/20 09:22:44;;;;;;;1999.90;999.90;;;;;;;0.77;100.00;101301.50;10503973;28;20415;-69
2023/01/20 09:27:46;;;;;;;1999.90;999.90;;;;;;;0.47;100.00;101309.47;10503876;28;20044;-69
2023/01/20 09:32:52;;;;;;;1999.90;999.90;;;;;;;0.57;100.00;101330.00;10504216;28;20106;-69
2023/01/20 09:54:43;;;;;;;1999.90;999.90;;;;;;;0.95;100.00;101334.84;10488846;28;20061;-69
2023/01/20 10:00:03;;;;;;;1999.90;999.90;;;;;;;0.85;100.00;101331.50;10485336;28;20094;-67
2023/01/20 10:05:12;;;;;;;1999.90;999.90;;;;;;;0.80;100.00;101327.25;10485279;28;20048;-67
2023/01/20 10:10:37;;;;;;;1999.90;999.90;;;;;;;1.20;100.00;101332.91;10485727;28;20049;-67
2023/01/20 10:15:44;;;;;;;1999.90;999.90;;;;;;;1.05;100.00;101340.78;10476442;28;20048;-67
2023/01/20 10:21:08;;;;;;;1999.90;999.90;;;;;;;1.26;100.00;101343.16;10483919;28;20136;-67
2023/01/20 10:26:19;;;;;;;1999.90;999.90;;;;;;;1.20;100.00;101347.53;10502003;28;20498;-67
2023/01/20 10:31:26;;;;;;;1999.90;999.90;;;;;;;1.33;100.00;101350.81;10467148;28;20479;-67
2023/01/20 10:36:30;;;;;;;1999.90;999.90;;;;;;;1.44;100.00;101355.00;10484067;28;20044;-67
2023/01/20 10:41:32;;;;;;;1999.90;999.90;;;;;;;1.33;100.00;101345.66;10483675;28;20048;-67
2023/01/20 10:46:45;;;;;;;1999.90;999.90;;;;;;;1.28;100.00;101349.16;10500611;28;20056;-67
2023/01/20 10:52:12;;;;;;;1999.90;999.90;;;;;;;1.34;100.00;101348.22;10500851;28;20132;-67
2023/01/20 10:57:15;;;;;;;1999.90;999.90;;;;;;;1.41;100.00;101351.59;10500180;28;20094;-67
2023/01/20 11:02:33;;;;;;;1999.90;999.90;;;;;;;1.40;100.00;101350.75;10499891;28;20056;-67
2023/01/20 11:07:36;;;;;;;1999.90;999.90;;;;;;;1.33;100.00;101350.81;10500427;28;20048;-67
2023/01/20 11:12:41;;;;;;;1999.90;999.90;;;;;;;1.44;100.00;101355.00;10500239;28;20052;-67
2023/01/20 11:17:44;;;;;;;1999.90;999.90;;;;;;;1.39;100.00;101358.50;10481630;28;20514;-67
2023/01/20 11:22:49;;;;;;;1999.90;999.90;;;;;;;1.55;100.00;101359.22;10481696;28;20423;-67
2023/01/20 11:27:52;;;;;;;1999.90;999.90;;;;;;;1.70;100.00;101360.75;10481937;28;20064;-67
2023/01/20 11:33:22;;;;;;;1999.90;999.90;;;;;;;1.82;100.00;101365.78;10481718;28;20086;-67
2023/01/20 11:38:46;;;;;;;1999.90;999.90;;;;;;;1.24;100.00;101367.25;10496583;28;20150;-67
2023/01/20 11:43:50;;;;;;;1999.90;999.90;;;;;;;1.55;100.00;101369.56;10498954;28;20052;-67
2023/01/20 11:49:21;;;;;;;1999.90;999.90;;;;;;;1.32;100.00;101368.03;10465142;28;20097;-67
2023/01/20 11:54:28;;;;;;;1999.90;999.90;;;;;;;1.73;100.00;101368.47;10496022;28;20044;-67
2023/01/20 11:59:33;;;;;;;1999.90;999.90;;;;;;;1.72;100.00;101369.34;10480808;28;20044;-67
2023/01/20 12:04:48;;;;;;;1999.90;999.90;;;;;;;1.60;100.00;101353.13;10480290;28;20117;-67
2023/01/20 12:09:53;;;;;;;1999.90;999.90;;;;;;;1.67;100.00;101346.16;10498466;28;20086;-67
2023/01/20 12:15:01;;;;;;;1999.90;999.90;;;;;;;1.52;100.00;101346.34;10480209;28;20052;-67
2023/01/20 12:20:12;;;;;;;1999.90;999.90;;;;;;;1.48;100.00;101350.69;10480445;28;20044;-67
2023/01/20 12:25:34;;;;;;;1999.90;999.90;;;;;;;1.72;100.00;101343.53;10497568;28;20412;-67
2023/01/20 12:30:50;;;;;;;1999.90;999.90;;;;;;;1.56;100.00;101341.13;10480283;28;20102;-67
2023/01/20 12:36:03;;;;;;;1999.90;999.90;;;;;;;1.66;100.00;101341.88;10479621;28;20415;-67
2023/01/20 12:41:41;;;;;;;1999.90;999.90;;;;;;;1.70;100.00;101345.25;10498022;28;20051;-67
2023/01/20 12:47:14;;;;;;;1999.90;999.90;;;;;;;1.64;100.00;101344.47;10474306;28;20049;-67
2023/01/20 12:52:59;;;;;;;1999.90;999.90;;;;;;;1.84;100.00;101348.53;10477534;28;20044;-67
2023/01/20 12:58:21;;;;;;;1999.90;999.90;;;;;;;1.78;100.00;101358.94;10498583;28;20064;-68
2023/01/20 13:03:40;;;;;;;1999.90;999.90;;;;;;;2.12;100.00;101364.56;10496707;28;20056;-67
2023/01/20 13:08:57;;;;;;;1999.90;999.90;;;;;;;1.64;100.00;101378.03;10479077;28;20545;-67
2023/01/20 13:14:12;;;;;;;1999.90;999.90;;;;;;;2.07;100.00;101393.88;10479262;28;20502;-68
2023/01/20 13:19:16;;;;;;;1999.90;999.90;;;;;;;1.98;100.00;101400.03;10484719;28;20052;-67
2023/01/20 13:24:27;;;;;;;1999.90;999.90;;;;;;;1.76;100.00;101400.25;10503894;28;20080;-67
2023/01/20 13:29:36;;;;;;;1999.90;999.90;;;;;;;1.71;100.00;101402.03;10504404;28;20054;-67
2023/01/20 13:34:39;;;;;;;1999.90;999.90;;;;;;;1.90;100.00;101399.25;10503554;28;20925;-67
2023/01/20 13:39:45;;;;;;;1999.90;999.90;;;;;;;1.80;100.00;101404.53;10503220;28;20078;-67
2023/01/20 13:45:11;;;;;;;1999.90;999.90;;;;;;;1.69;100.00;101406.38;10453755;28;20044;-67
2023/01/20 13:50:30;;;;;;;1999.90;999.90;;;;;;;1.98;100.00;101416.34;10503403;28;20056;-67
2023/01/20 13:55:44;;;;;;;1999.90;999.90;;;;;;;1.67;100.00;101418.44;10503430;28;20103;-67
2023/01/20 14:01:01;;;;;;;1999.90;999.90;;;;;;;1.82;100.00;101428.59;10484729;28;20052;-67
2023/01/20 14:06:19;;;;;;;1999.90;999.90;;;;;;;1.84;100.00;101439.78;10492541;22;20044;-67
2023/01/20 14:11:23;;;;;;;1999.90;999.90;;;;;;;1.73;100.00;101444.22;10484530;28;20376;-67
2023/01/20 14:16:32;;;;;;;1999.90;999.90;;;;;;;1.56;100.00;101446.09;10484899;28;20055;-67
2023/01/20 14:21:41;;;;;;;1999.90;999.90;;;;;;;1.75;100.00;101450.22;10502399;28;20049;-67
2023/01/20 14:26:44;;;;;;;1999.90;999.90;;;;;;;1.94;100.00;101457.75;10484383;28;20384;-67
2023/01/20 14:31:46;;;;;;;1999.90;999.90;;;;;;;1.79;100.00;101463.94;10501329;28;20549;-67
2023/01/20 14:36:49;;;;;;;1999.90;999.90;;;;;;;1.89;100.00;101473.28;10501729;28;20058;-67
2023/01/20 14:41:59;;;;;;;1999.90;999.90;;;;;;;1.98;100.00;101475.75;10501496;28;20048;-67
2023/01/20 14:47:03;;;;;;;1999.90;999.90;;;;;;;2.10;100.00;101486.84;10483682;28;20056;-67
2023/01/20 14:52:13;;;;;;;1999.90;999.90;;;;;;;2.22;100.00;101505.66;10500728;28;20044;-67
2023/01/20 14:57:19;;;;;;;1999.90;999.90;;;;;;;1.89;100.00;101517.19;10483308;28;20052;-67
2023/01/20 15:02:28;;;;;;;1999.90;999.90;;;;;;;2.06;100.00;101522.19;10500849;28;20057;-67
2023/01/20 15:07:30;;;;;;;1999.90;999.90;;;;;;;1.99;100.00;101528.31;10499946;28;20084;-67
2023/01/20 15:12:39;;;;;;;1999.90;999.90;;;;;;;2.08;100.00;101538.53;10499693;28;20460;-67
2023/01/20 15:18:03;;;;;;;1999.90;999.90;;;;;;;2.03;100.00;101551.50;10482760;28;20053;-67
2023/01/20 15:23:19;;;;;;;1999.90;999.90;;;;;;;1.92;100.00;101558.50;10499355;28;20052;-67
2023/01/20 15:28:27;;;;;;;1999.90;999.90;;;;;;;1.78;100.00;101566.38;10499116;28;20506;-67
2023/01/20 15:33:30;;;;;;;1999.90;999.90;;;;;;;1.90;100.00;101580.03;10481961;28;20059;-67
2023/01/20 15:38:33;;;;;;;1999.90;999.90;;;;;;;1.97;100.00;101594.63;10498415;28;20506;-67
2023/01/20 15:43:35;;;;;;;1999.90;999.90;;;;;;;1.83;100.00;101608.50;10499002;28;20044;-68
2023/01/20 15:48:38;;;;;;;1999.90;999.90;;;;;;;2.10;100.00;101616.88;10499047;28;20045;-68
2023/01/20 15:53:40;;;;;;;1999.90;999.90;;;;;;;2.13;100.00;101622.00;10480504;28;20048;-68
2023/01/20 15:58:42;;;;;;;1999.90;999.90;;;;;;;1.97;100.00;101635.94;10499143;28;20098;-68
2023/01/20 16:03:45;;;;;;;1999.90;999.90;;;;;;;1.89;100.00;101642.91;10480728;28;20102;-68
2023/01/20 16:08:49;;;;;;;1999.90;999.90;;;;;;;1.89;100.00;101658.38;10498706;28;20040;-68
2023/01/20 16:13:52;;;;;;;1999.90;999.90;;;;;;;1.84;100.00;101676.50;10464136;28;20487;-68
2023/01/20 16:18:54;;;;;;;1999.90;999.90;;;;;;;1.83;100.00;101677.34;10480633;28;20063;-68
2023/01/20 16:23:57;;;;;;;1999.90;999.90;;;;;;;2.08;100.00;101683.19;10497478;28;20582;-69
2023/01/20 16:28:59;;;;;;;1999.90;999.90;;;;;;;2.10;100.00;101704.72;10463898;28;20045;-69
2023/01/20 16:34:03;;;;;;;1999.90;999.90;;;;;;;2.12;100.00;101708.16;10497406;28;20114;-68
2023/01/20 16:39:08;;;;;;;1999.90;999.90;;;;;;;2.17;100.00;101719.31;10464688;28;20049;-68
2023/01/20 16:44:10;;;;;;;1999.90;999.90;;;;;;;2.13;100.00;101735.69;10480129;28;20052;-69
2023/01/20 16:49:13;;;;;;;1999.90;999.90;;;;;;;2.05;100.00;101734.88;10497716;28;20048;-68
2023/01/20 16:54:15;;;;;;;1999.90;999.90;;;;;;;1.83;100.00;101753.13;10503961;28;20099;-69
2023/01/20 16:59:17;;;;;;;1999.90;999.90;;;;;;;1.69;100.00;101769.53;10505553;28;20049;-69
2023/01/20 17:04:20;;;;;;;1999.90;999.90;;;;;;;1.40;100.00;101778.28;10505153;28;20109;-69
2023/01/20 17:09:22;;;;;;;1999.90;999.90;;;;;;;1.16;100.00;101786.94;10505166;28;20044;-68
2023/01/20 17:14:24;;;;;;;1999.90;999.90;;;;;;;1.26;100.00;101799.81;10504980;28;20048;-68
2023/01/20 17:19:27;;;;;;;1999.90;999.90;;;;;;;1.18;100.00;101809.28;10504111;28;20048;-69
2023/01/20 17:24:29;;;;;;;1999.90;999.90;;;;;;;1.05;100.00;101817.91;10504018;28;20491;-68
2023/01/20 17:29:31;;;;;;;1999.90;999.90;;;;;;;1.05;100.00;101823.06;10485974;28;20052;-68
2023/01/20 17:34:34;;;;;;;1999.90;999.90;;;;;;;0.89;100.00;101835.09;10504212;28;20049;-68
2023/01/20 17:39:36;;;;;;;1999.90;999.90;;;;;;;0.62;100.00;101848.84;10503971;28;20055;-68
2023/01/20 17:44:38;;;;;;;1999.90;999.90;;;;;;;0.46;100.00;101859.16;10503919;28;20078;-68
2023/01/20 17:49:41;;;;;;;1999.90;999.90;;;;;;;0.53;100.00;101875.47;10486499;28;20044;-68
2023/01/20 17:54:43;;;;;;;1999.90;999.90;;;;;;;0.39;100.00;101890.94;10503600;28;20048;-68
2023/01/20 17:59:45;;;;;;;1999.90;999.90;;;;;;;0.70;100.00;101896.13;10503248;28;20044;-68
2023/01/20 18:04:48;;;;;;;1999.90;999.90;;;;;;;0.70;100.00;101907.28;10502570;28;20059;-68
2023/01/20 18:09:50;;;;;;;1999.90;999.90;;;;;;;0.80;100.00;101918.47;10502309;28;20476;-68
2023/01/20 18:14:57;;;;;;;1999.90;999.90;;;;;;;0.82;100.00;101931.38;10502788;28;20106;-68
2023/01/20 18:19:59;;;;;;;1999.90;999.90;;;;;;;0.87;100.00;101939.97;10501879;28;20405;-68
2023/01/20 18:25:02;;;;;;;1999.90;999.90;;;;;;;0.82;100.00;101952.00;10501842;28;20055;-68
2023/01/20 18:30:05;;;;;;;1999.90;999.90;;;;;;;0.72;100.00;101956.25;10502129;28;20040;-68
2023/01/20 18:35:07;;;;;;;1999.90;999.90;;;;;;;0.68;100.00;101960.56;10478133;28;20097;-68
2023/01/20 18:40:10;;;;;;;1999.90;999.90;;;;;;;0.61;100.00;101976.88;10500992;28;20480;-68
2023/01/20 18:45:12;;;;;;;1999.90;999.90;;;;;;;0.51;100.00;101986.28;10507664;28;20048;-68
2023/01/20 18:50:15;;;;;;;1999.90;999.90;;;;;;;0.13;100.00;101999.84;10492621;28;20044;-68
2023/01/20 18:55:18;;;;;;;1999.90;999.90;;;;;;;0.15;100.00;102011.06;10523571;28;20097;-68
2023/01/20 19:00:21;;;;;;;1999.90;999.90;;;;;;;0.18;100.00;102021.38;10488687;28;20044;-67
2023/01/20 19:05:23;;;;;;;1999.90;999.90;;;;;;;0.05;100.00;102027.31;10500230;28;20110;-68
2023/01/20 19:10:26;;;;;;;1999.90;999.90;;;;;;;0.20;100.00;102035.97;10499923;28;20388;-67
2023/01/20 19:15:28;;;;;;;1999.90;999.90;;;;;;;0.30;100.00;102035.16;10541429;28;20048;-67
2023/01/20 19:20:33;;;;;;;1999.90;999.90;;;;;;;0.13;100.00;102046.22;10510720;28;20056;-67
2023/01/20 19:25:35;;;;;;;1999.90;999.90;;;;;;;0.21;100.00;102055.72;10495721;28;20102;-67
2023/01/20 19:30:37;;;;;;;1999.90;999.90;;;;;;;0.09;100.00;102074.53;10494107;28;20040;-67
2023/01/20 19:35:40;;;;;;;1999.90;999.90;;;;;;;-0.11;100.00;102079.56;10495554;28;20407;-67
2023/01/20 19:40:44;;;;;;;1999.90;999.90;;;;;;;-0.12;100.00;102099.25;10496164;28;20049;-67
2023/01/20 19:45:46;;;;;;;1999.90;999.90;;;;;;;-0.13;100.00;102117.31;10497169;28;20048;-67
2023/01/20 19:50:48;;;;;;;1999.90;999.90;;;;;;;-0.11;100.00;102133.63;10532291;28;20110;-67
2023/01/20 19:55:50;;;;;;;1999.90;999.90;;;;;;;-0.04;100.00;102138.81;10496847;28;20407;-67
2023/01/20 20:00:53;;;;;;;1999.90;999.90;;;;;;;-0.09;100.00;102149.94;10479274;28;20040;-67
2023/01/20 20:05:56;;;;;;;1999.90;999.90;;;;;;;-0.13;100.00;102158.50;10477266;28;20064;-67
2023/01/20 20:10:59;;;;;;;1999.90;999.90;;;;;;;-0.20;100.00;102173.00;10454097;28;20141;-67
2023/01/20 20:16:02;;;;;;;1999.90;999.90;;;;;;;-0.14;100.00;102175.63;10484079;28;20045;-67
2023/01/20 20:21:07;;;;;;;1999.90;999.90;;;;;;;-0.17;100.00;102187.59;10496004;28;20484;-67
2023/01/20 20:26:12;;;;;;;1999.90;999.90;;;;;;;-0.08;100.00;102196.28;10499850;28;20234;-66
2023/01/20 20:31:14;;;;;;;1999.90;999.90;;;;;;;-0.11;100.00;102193.69;10509623;28;20047;-66
2023/01/20 20:36:17;;;;;;;1999.90;999.90;;;;;;;-0.19;100.00;102206.47;10510380;28;20082;-66
2023/01/20 20:41:20;;;;;;;1999.90;999.90;;;;;;;-0.26;100.00;102212.41;10508048;28;20040;-66
2023/01/20 20:46:22;;;;;;;1999.90;999.90;;;;;;;-0.01;100.00;102207.50;10507432;28;20110;-66
2023/01/20 20:51:25;;;;;;;1999.90;999.90;;;;;;;-0.28;100.00;102219.25;10484380;28;20484;-67
2023/01/20 20:56:31;;;;;;;1999.90;999.90;;;;;;;-0.07;100.00;102221.19;10490862;28;20048;-66
2023/01/20 21:01:34;;;;;;;1999.90;999.90;;;;;;;-0.13;100.00;102240.88;10490893;28;20087;-66
2023/01/20 21:06:36;;;;;;;1999.90;999.90;;;;;;;-0.15;100.00;102255.41;10506910;28;20144;-66
2023/01/20 21:11:39;;;;;;;1999.90;999.90;;;;;;;-0.21;100.00;102261.38;10509185;28;20048;-66
2023/01/20 21:16:44;;;;;;;1999.90;999.90;;;;;;;-0.33;100.00;102271.53;10508797;28;20433;-66
2023/01/20 21:21:47;;;;;;;1999.90;999.90;;;;;;;-0.41;100.00;102274.00;10472445;28;20054;-66
2023/01/20 21:26:49;;;;;;;1999.90;999.90;;;;;;;-0.54;100.00;102291.00;10507189;28;20446;-66
2023/01/20 21:31:52;;;;;;;1999.90;999.90;;;;;;;-0.41;100.00;102295.47;10506487;28;20398;-66
2023/01/20 21:36:55;;;;;;;1999.90;999.90;;;;;;;-0.57;100.00;102299.56;10488400;28;20132;-66
2023/01/20 21:41:57;;;;;;;1999.90;999.90;;;;;;;-0.59;100.00;102308.09;10502705;28;20053;-66
2023/01/20 21:47:04;;;;;;;1999.90;999.90;;;;;;;-0.61;100.00;102328.66;10480481;28;20056;-66
2023/01/20 21:57:31;;;;;;;1999.90;999.90;;;;;;;-0.65;100.00;102334.63;10484081;28;20052;-66
2023/01/20 22:02:34;;;;;;;1999.90;999.90;;;;;;;-0.65;100.00;102346.63;10501394;28;20044;-66
2023/01/20 22:07:36;;;;;;;1999.90;999.90;;;;;;;-0.85;100.00;102352.31;10500446;28;20059;-66
2023/01/20 22:12:39;;;;;;;1999.90;999.90;;;;;;;-0.63;100.00;102358.66;10471901;28;20048;-66
2023/01/20 22:17:41;;;;;;;1999.90;999.90;;;;;;;-0.90;100.00;102359.09;10501590;28;20094;-65
2023/01/20 22:22:44;;;;;;;1999.90;999.90;;;;;;;-0.68;100.00;102369.72;10502412;28;20051;-66
2023/01/20 22:27:47;;;;;;;1999.90;999.90;;;;;;;-0.87;100.00;102382.31;10502309;28;20057;-65